createdAt,value
2019-02-10T00:00:14.405Z,100706.00
2019-02-10T00:02:47.512Z,100707.00
2019-02-10T00:05:20.179Z,100706.00
2019-02-10T00:07:53.104Z,100711.00
2019-02-10T00:10:25.888Z,100705.00
2019-02-10T00:13:28.987Z,100700.00
2019-02-10T00:16:02.980Z,100700.00
2019-02-10T00:18:38.084Z,100705.00
2019-02-10T00:21:11.221Z,100701.00
2019-02-10T00:23:43.953Z,100702.00
2019-02-10T00:26:16.641Z,100698.00
2019-02-10T00:28:49.608Z,100696.00
2019-02-10T00:31:22.311Z,100697.00
2019-02-10T00:33:55.077Z,100685.00
2019-02-10T00:36:33.450Z,100694.00
2019-02-10T00:39:03.011Z,100692.00
2019-02-10T00:41:35.918Z,100691.00
2019-02-10T00:44:08.561Z,100691.00
2019-02-10T00:46:41.525Z,100688.00
2019-02-10T00:49:16.026Z,100691.00
2019-02-10T00:51:48.746Z,100685.00
2019-02-10T00:54:22.741Z,100676.00
2019-02-10T00:56:55.558Z,100679.00
2019-02-10T00:59:28.601Z,100678.00
2019-02-10T01:02:01.326Z,100677.00
2019-02-10T01:04:34.118Z,100672.00
2019-02-10T01:07:07.170Z,100670.00
2019-02-10T01:09:39.959Z,100676.00
2019-02-10T01:12:12.843Z,100669.00
2019-02-10T01:14:45.639Z,100670.00
2019-02-10T01:17:18.408Z,100670.00
2019-02-10T01:19:51.342Z,100667.00
2019-02-10T01:22:23.998Z,100664.00
2019-02-10T01:24:56.886Z,100670.00
2019-02-10T01:27:30.303Z,100663.00
2019-02-10T01:30:03.636Z,100657.00
2019-02-10T01:32:37.828Z,100655.00
2019-02-10T01:35:11.267Z,100651.00
2019-02-10T01:37:45.785Z,100645.00
2019-02-10T01:40:20.170Z,100641.00
2019-02-10T01:42:54.394Z,100643.00
2019-02-10T01:45:28.209Z,100630.00
2019-02-10T01:48:01.021Z,100629.00
2019-02-10T01:50:33.946Z,100628.00
2019-02-10T01:53:06.577Z,100615.00
2019-02-10T01:55:39.725Z,100608.00
2019-02-10T01:58:12.563Z,100605.00
2019-02-10T02:00:45.612Z,100601.00
2019-02-10T02:03:18.317Z,100592.00
2019-02-10T02:05:51.857Z,100589.00
2019-02-10T02:08:24.361Z,100589.00
2019-02-10T02:10:57.068Z,100580.00
2019-02-10T02:13:30.357Z,100570.00
2019-02-10T02:16:03.044Z,100568.00
2019-02-10T02:18:35.822Z,100563.00
2019-02-10T02:21:08.737Z,100566.00
2019-02-10T02:23:41.585Z,100559.00
2019-02-10T02:26:14.250Z,100554.00
2019-02-10T02:28:46.821Z,100548.00
2019-02-10T02:31:19.669Z,100539.00
2019-02-10T02:33:52.460Z,100552.00
2019-02-10T02:36:25.303Z,100549.00
2019-02-10T02:38:58.268Z,100548.00
2019-02-10T02:41:32.385Z,100554.00
2019-02-10T02:44:07.227Z,100548.00
2019-02-10T02:46:39.911Z,100544.00
2019-02-10T02:49:12.704Z,100541.00
2019-02-10T02:51:45.499Z,100529.00
2019-02-10T02:54:18.495Z,100523.00
2019-02-10T02:56:51.247Z,100522.00
2019-02-10T02:59:25.071Z,100518.00
2019-02-10T03:01:57.828Z,100517.00
2019-02-10T03:04:30.724Z,100518.00
2019-02-10T03:07:03.279Z,100513.00
2019-02-10T03:09:36.162Z,100515.00
2019-02-10T03:12:08.959Z,100507.00
2019-02-10T03:14:41.750Z,100499.00
2019-02-10T03:17:15.789Z,100497.00
2019-02-10T03:19:48.545Z,100488.00
2019-02-10T03:22:21.293Z,100486.00
2019-02-10T03:24:54.085Z,100487.00
2019-02-10T03:27:26.892Z,100487.00
2019-02-10T03:29:59.721Z,100484.00
2019-02-10T03:32:32.441Z,100474.00
2019-02-10T03:35:05.641Z,100476.00
2019-02-10T03:37:38.533Z,100474.00
2019-02-10T03:40:12.442Z,100473.00
2019-02-10T03:42:46.063Z,100475.00
2019-02-10T03:45:18.816Z,100462.00
2019-02-10T03:47:53.310Z,100462.00
2019-02-10T03:50:26.024Z,100458.00
2019-02-10T03:52:58.995Z,100454.00
2019-02-10T03:55:31.813Z,100449.00
2019-02-10T03:58:05.297Z,100451.00
2019-02-10T04:00:38.143Z,100446.00
2019-02-10T04:03:11.029Z,100437.00
2019-02-10T04:05:43.716Z,100441.00
2019-02-10T04:08:16.637Z,100437.00
2019-02-10T04:10:49.344Z,100431.00
2019-02-10T04:13:22.320Z,100430.00
2019-02-10T04:15:55.059Z,100428.00
2019-02-10T04:18:27.718Z,100425.00
2019-02-10T04:21:00.294Z,100428.00
2019-02-10T04:23:32.946Z,100432.00
2019-02-10T04:26:05.568Z,100430.00
2019-02-10T04:28:38.617Z,100421.00
2019-02-10T04:31:11.198Z,100434.00
2019-02-10T04:33:43.911Z,100432.00
2019-02-10T04:36:16.875Z,100426.00
2019-02-10T04:38:49.547Z,100417.00
2019-02-10T04:41:22.389Z,100416.00
2019-02-10T04:43:55.053Z,100431.00
2019-02-10T04:46:28.009Z,100429.00
2019-02-10T04:49:00.679Z,100422.00
2019-02-10T04:51:33.804Z,100420.00
2019-02-10T04:54:08.615Z,100412.00
2019-02-10T04:56:41.466Z,100412.00
2019-02-10T04:59:14.795Z,100417.00
2019-02-10T05:01:47.835Z,100420.00
2019-02-10T05:04:20.471Z,100416.00
2019-02-10T05:06:53.432Z,100415.00
2019-02-10T05:09:25.996Z,100414.00
2019-02-10T05:11:58.393Z,100416.00
2019-02-10T05:14:31.629Z,100418.00
2019-02-10T05:17:04.163Z,100410.00
2019-02-10T05:19:37.038Z,100418.00
2019-02-10T05:22:09.851Z,100418.00
2019-02-10T05:24:42.728Z,100417.00
2019-02-10T05:27:15.608Z,100424.00
2019-02-10T05:29:48.674Z,100417.00
2019-02-10T05:32:21.134Z,100414.00
2019-02-10T05:34:53.828Z,100411.00
2019-02-10T05:37:26.526Z,100418.00
2019-02-10T05:40:00.194Z,100421.00
2019-02-10T05:42:32.922Z,100416.00
2019-02-10T05:45:06.941Z,100411.00
2019-02-10T05:47:39.901Z,100415.00
2019-02-10T05:50:12.697Z,100415.00
2019-02-10T05:52:45.666Z,100408.00
2019-02-10T05:55:18.475Z,100423.00
2019-02-10T05:57:51.270Z,100411.00
2019-02-10T06:00:23.933Z,100413.00
2019-02-10T06:02:57.493Z,100411.00
2019-02-10T06:05:30.208Z,100405.00
2019-02-10T06:08:03.187Z,100411.00
2019-02-10T06:10:35.996Z,100411.00
2019-02-10T06:13:09.065Z,100403.00
2019-02-10T06:15:41.739Z,100409.00
2019-02-10T06:18:14.718Z,100409.00
2019-02-10T06:20:47.499Z,100413.00
2019-02-10T06:23:20.290Z,100402.00
2019-02-10T06:25:54.281Z,100409.00
2019-02-10T06:28:27.002Z,100411.00
2019-02-10T06:30:59.776Z,100410.00
2019-02-10T06:33:32.446Z,100412.00
2019-02-10T06:36:05.536Z,100414.00
2019-02-10T06:38:38.289Z,100417.00
2019-02-10T06:41:11.958Z,100435.00
2019-02-10T06:43:44.720Z,100425.00
2019-02-10T06:46:17.720Z,100425.00
2019-02-10T06:48:50.545Z,100418.00
2019-02-10T06:51:23.349Z,100423.00
2019-02-10T06:53:56.077Z,100420.00
2019-02-10T06:56:28.924Z,100421.00
2019-02-10T06:59:01.885Z,100422.00
2019-02-10T07:01:36.084Z,100419.00
2019-02-10T07:04:11.416Z,100422.00
2019-02-10T07:06:44.136Z,100424.00
2019-02-10T07:09:17.937Z,100431.00
2019-02-10T07:11:52.547Z,100427.00
2019-02-10T07:14:28.295Z,100426.00
2019-02-10T07:17:24.262Z,100432.00
2019-02-10T07:20:32.076Z,100432.00
2019-02-10T07:23:07.267Z,100436.00
2019-02-10T07:25:47.175Z,100433.00
2019-02-10T07:28:22.588Z,100427.00
2019-02-10T07:31:06.428Z,100434.00
2019-02-10T07:33:44.349Z,100436.00
2019-02-10T07:36:30.797Z,100445.00
2019-02-10T07:39:12.804Z,100446.00
2019-02-10T07:41:59.368Z,100448.00
2019-02-10T07:44:34.590Z,100454.00
2019-02-10T07:47:22.300Z,100453.00
2019-02-10T07:50:10.032Z,100457.00
2019-02-10T07:52:55.203Z,100451.00
2019-02-10T07:55:48.478Z,100460.00
2019-02-10T07:58:35.483Z,100458.00
2019-02-10T08:01:14.826Z,100460.00
2019-02-10T08:03:49.846Z,100465.00
2019-02-10T08:06:43.168Z,100469.00
2019-02-10T08:09:20.926Z,100471.00
2019-02-10T08:12:10.713Z,100465.00
2019-02-10T08:14:45.334Z,100472.00
2019-02-10T08:17:26.394Z,100467.00
2019-02-10T08:20:04.098Z,100478.00
2019-02-10T08:22:42.098Z,100474.00
2019-02-10T08:25:22.409Z,100479.00
2019-02-10T08:27:57.869Z,100475.00
2019-02-10T08:30:44.568Z,100476.00
2019-02-10T08:33:19.172Z,100473.00
2019-02-10T08:35:56.855Z,100482.00
2019-02-10T08:38:54.275Z,100486.00
2019-02-10T08:41:43.881Z,100485.00
2019-02-10T08:44:36.559Z,100495.00
2019-02-10T08:47:33.451Z,100495.00
2019-02-10T08:50:11.945Z,100499.00
2019-02-10T08:52:55.513Z,100506.00
2019-02-10T08:55:29.357Z,100504.00
2019-02-10T08:58:02.199Z,100512.00
2019-02-10T09:00:35.058Z,100511.00
2019-02-10T09:03:07.887Z,100510.00
2019-02-10T09:05:40.702Z,100514.00
2019-02-10T09:08:13.468Z,100524.00
2019-02-10T09:10:46.388Z,100522.00
2019-02-10T09:13:19.209Z,100517.00
2019-02-10T09:15:52.213Z,100519.00
2019-02-10T09:18:25.198Z,100519.00
2019-02-10T09:20:58.081Z,100520.00
2019-02-10T09:23:30.727Z,100524.00
2019-02-10T09:26:03.723Z,100521.00
2019-02-10T09:28:36.515Z,100527.00
2019-02-10T09:31:09.459Z,100525.00
2019-02-10T09:33:42.298Z,100520.00
2019-02-10T09:36:15.300Z,100513.00
2019-02-10T09:38:48.038Z,100513.00
2019-02-10T09:41:21.063Z,100519.00
2019-02-10T09:43:53.826Z,100517.00
2019-02-10T09:46:26.734Z,100504.00
2019-02-10T09:48:59.416Z,100507.00
2019-02-10T09:51:32.149Z,100513.00
2019-02-10T09:54:05.554Z,100508.00
2019-02-10T09:56:38.328Z,100513.00
2019-02-10T09:59:11.349Z,100519.00
2019-02-10T10:01:44.249Z,100517.00
2019-02-10T10:04:16.820Z,100516.00
2019-02-10T10:06:49.548Z,100515.00
2019-02-10T10:09:22.664Z,100522.00
2019-02-10T10:11:55.552Z,100520.00
2019-02-10T10:14:30.758Z,100524.00
2019-02-10T10:17:02.248Z,100530.00
2019-02-10T10:19:35.721Z,100524.00
2019-02-10T10:22:08.607Z,100522.00
2019-02-10T10:24:50.093Z,100519.00
2019-02-10T10:27:16.131Z,100514.00
2019-02-10T10:29:49.111Z,100513.00
2019-02-10T10:32:22.120Z,100505.00
2019-02-10T10:34:54.789Z,100500.00
2019-02-10T10:37:27.620Z,100505.00
2019-02-10T10:40:00.372Z,100494.00
2019-02-10T10:42:33.532Z,100494.00
2019-02-10T10:45:06.656Z,100487.00
2019-02-10T10:47:40.396Z,100491.00
2019-02-10T10:50:15.074Z,100487.00
2019-02-10T10:52:47.720Z,100483.00
2019-02-10T10:55:20.718Z,100476.00
2019-02-10T10:57:54.125Z,100481.00
2019-02-10T11:00:27.301Z,100478.00
2019-02-10T11:02:59.840Z,100477.00
2019-02-10T11:05:32.670Z,100472.00
2019-02-10T11:08:05.438Z,100468.00
2019-02-10T11:10:38.418Z,100461.00
2019-02-10T11:13:11.205Z,100450.00
2019-02-10T11:15:43.862Z,100452.00
2019-02-10T11:18:16.971Z,100449.00
2019-02-10T11:20:49.753Z,100442.00
2019-02-10T11:23:22.658Z,100444.00
2019-02-10T11:25:56.867Z,100439.00
2019-02-10T11:28:30.048Z,100431.00
2019-02-10T11:31:02.914Z,100435.00
2019-02-10T11:33:35.707Z,100439.00
2019-02-10T11:36:08.928Z,100432.00
2019-02-10T11:38:42.115Z,100432.00
2019-02-10T11:41:15.111Z,100436.00
2019-02-10T11:43:47.727Z,100430.00
2019-02-10T11:46:21.500Z,100429.00
2019-02-10T11:48:54.573Z,100426.00
2019-02-10T11:51:27.344Z,100427.00
2019-02-10T11:54:06.801Z,100419.00
2019-02-10T11:56:39.553Z,100425.00
2019-02-10T11:59:14.083Z,100419.00
2019-02-10T12:01:46.961Z,100413.00
2019-02-10T12:04:19.642Z,100401.00
2019-02-10T12:06:53.394Z,100397.00
2019-02-10T12:09:26.231Z,100400.00
2019-02-10T12:11:58.995Z,100397.00
2019-02-10T12:14:31.775Z,100401.00
2019-02-10T12:17:04.604Z,100403.00
2019-02-10T12:19:37.350Z,100399.00
2019-02-10T12:22:10.542Z,100394.00
2019-02-10T12:24:43.120Z,100384.00
2019-02-10T12:27:15.809Z,100393.00
2019-02-10T12:29:48.797Z,100385.00
2019-02-10T12:32:21.587Z,100384.00
2019-02-10T12:34:54.345Z,100382.00
2019-02-10T12:37:32.354Z,100383.00
2019-02-10T12:40:01.887Z,100384.00
2019-02-10T12:42:35.106Z,100374.00
2019-02-10T12:45:12.320Z,100369.00
2019-02-10T12:47:45.417Z,100376.00
2019-02-10T12:50:18.235Z,100372.00
2019-02-10T12:52:51.182Z,100358.00
2019-02-10T12:55:23.997Z,100359.00
2019-02-10T12:57:57.082Z,100347.00
2019-02-10T13:00:30.121Z,100339.00
2019-02-10T13:03:02.881Z,100342.00
2019-02-10T13:05:36.392Z,100338.00
2019-02-10T13:08:09.112Z,100335.00
2019-02-10T13:10:41.957Z,100322.00
2019-02-10T13:13:19.436Z,100322.00
2019-02-10T13:15:49.124Z,100326.00
2019-02-10T13:18:22.072Z,100322.00
2019-02-10T13:20:54.977Z,100319.00
2019-02-10T13:23:27.855Z,100335.00
2019-02-10T13:26:00.642Z,100330.00
2019-02-10T13:28:33.633Z,100323.00
2019-02-10T13:31:06.430Z,100320.00
2019-02-10T13:33:39.411Z,100322.00
2019-02-10T13:36:12.195Z,100324.00
2019-02-10T13:38:45.160Z,100320.00
2019-02-10T13:41:17.947Z,100321.00
2019-02-10T13:43:51.963Z,100314.00
2019-02-10T13:46:24.736Z,100313.00
2019-02-10T13:48:58.308Z,100312.00
2019-02-10T13:51:31.264Z,100330.00
2019-02-10T13:54:04.012Z,100313.00
2019-02-10T13:56:36.749Z,100316.00
2019-02-10T13:59:09.614Z,100325.00
2019-02-10T14:01:42.245Z,100324.00
2019-02-10T14:04:15.161Z,100311.00
2019-02-10T14:06:47.917Z,100320.00
2019-02-10T14:09:20.943Z,100323.00
2019-02-10T14:11:53.865Z,100322.00
2019-02-10T14:14:26.429Z,100316.00
2019-02-10T14:16:59.594Z,100326.00
2019-02-10T14:19:32.211Z,100314.00
2019-02-10T14:22:04.990Z,100315.00
2019-02-10T14:24:38.126Z,100313.00
2019-02-10T14:27:10.946Z,100317.00
2019-02-10T14:29:43.700Z,100306.00
2019-02-10T14:32:19.060Z,100311.00
2019-02-10T14:34:50.699Z,100306.00
2019-02-10T14:37:23.679Z,100299.00
2019-02-10T14:39:56.445Z,100293.00
2019-02-10T14:42:29.296Z,100300.00
2019-02-10T14:45:02.096Z,100291.00
2019-02-10T14:47:36.280Z,100294.00
2019-02-10T14:50:14.160Z,100293.00
2019-02-10T14:52:47.201Z,100294.00
2019-02-10T14:55:20.129Z,100294.00
2019-02-10T14:57:53.897Z,100290.00
2019-02-10T15:00:27.346Z,100285.00
2019-02-10T15:02:59.934Z,100278.00
2019-02-10T15:05:32.630Z,100282.00
2019-02-10T15:08:05.737Z,100271.00
2019-02-10T15:10:42.025Z,100276.00
2019-02-10T15:13:12.296Z,100288.00
2019-02-10T15:15:45.028Z,100288.00
2019-02-10T15:18:17.996Z,100277.00
2019-02-10T15:20:50.784Z,100266.00
2019-02-10T15:23:23.756Z,100267.00
2019-02-10T15:25:56.439Z,100267.00
2019-02-10T15:28:29.116Z,100261.00
2019-02-10T15:31:01.713Z,100262.00
2019-02-10T15:33:34.597Z,100262.00
2019-02-10T15:36:08.493Z,100267.00
2019-02-10T15:38:41.413Z,100265.00
2019-02-10T15:41:14.078Z,100262.00
2019-02-10T15:43:47.106Z,100265.00
2019-02-10T15:46:19.703Z,100267.00
2019-02-10T15:48:52.399Z,100264.00
2019-02-10T15:51:35.541Z,100280.00
2019-02-10T15:53:59.699Z,100272.00
2019-02-10T15:56:33.578Z,100279.00
2019-02-10T15:59:06.339Z,100275.00
2019-02-10T16:01:38.975Z,100278.00
2019-02-10T16:04:11.864Z,100275.00
2019-02-10T16:06:44.524Z,100268.00
2019-02-10T16:09:17.513Z,100263.00
2019-02-10T16:11:50.409Z,100258.00
2019-02-10T16:14:22.949Z,100267.00
2019-02-10T16:16:56.729Z,100263.00
2019-02-10T16:19:29.506Z,100264.00
2019-02-10T16:22:02.450Z,100268.00
2019-02-10T16:24:36.075Z,100269.00
2019-02-10T16:27:09.061Z,100273.00
2019-02-10T16:29:41.963Z,100270.00
2019-02-10T16:32:14.859Z,100272.00
2019-02-10T16:34:47.599Z,100271.00
2019-02-10T16:37:20.668Z,100275.00
2019-02-10T16:39:53.363Z,100273.00
2019-02-10T16:42:26.435Z,100275.00
2019-02-10T16:44:59.235Z,100270.00
2019-02-10T16:47:32.313Z,100267.00
2019-02-10T16:50:05.085Z,100270.00
2019-02-10T16:52:39.451Z,100272.00
2019-02-10T16:55:13.788Z,100275.00
2019-02-10T16:57:47.225Z,100283.00
2019-02-10T17:00:20.118Z,100285.00
2019-02-10T17:02:53.409Z,100290.00
2019-02-10T17:05:26.125Z,100296.00
2019-02-10T17:07:59.320Z,100281.00
2019-02-10T17:10:32.218Z,100286.00
2019-02-10T17:13:05.036Z,100289.00
2019-02-10T17:15:38.092Z,100279.00
2019-02-10T17:18:11.988Z,100283.00
2019-02-10T17:20:44.821Z,100284.00
2019-02-10T17:23:17.818Z,100282.00
2019-02-10T17:25:50.718Z,100279.00
2019-02-10T17:28:23.662Z,100279.00
2019-02-10T17:30:56.360Z,100281.00
2019-02-10T17:33:29.714Z,100286.00
2019-02-10T17:36:02.406Z,100289.00
2019-02-10T17:38:35.954Z,100289.00
2019-02-10T17:41:10.531Z,100292.00
2019-02-10T17:43:43.259Z,100296.00
2019-02-10T17:46:16.004Z,100302.00
2019-02-10T17:48:48.979Z,100302.00
2019-02-10T17:51:22.072Z,100302.00
2019-02-10T17:53:55.331Z,100301.00
2019-02-10T17:56:28.341Z,100307.00
2019-02-10T17:59:01.698Z,100306.00
2019-02-10T18:01:34.769Z,100316.00
2019-02-10T18:04:07.597Z,100323.00
2019-02-10T18:06:40.652Z,100324.00
2019-02-10T18:09:13.437Z,100326.00
2019-02-10T18:11:46.360Z,100318.00
2019-02-10T18:14:20.353Z,100315.00
2019-02-10T18:16:54.680Z,100316.00
2019-02-10T18:19:31.456Z,100310.00
2019-02-10T18:22:06.124Z,100318.00
2019-02-10T18:24:40.515Z,100324.00
2019-02-10T18:27:17.680Z,100323.00
2019-02-10T18:29:52.122Z,100335.00
2019-02-10T18:32:26.134Z,100340.00
2019-02-10T18:35:03.282Z,100345.00
2019-02-10T18:37:37.304Z,100337.00
2019-02-10T18:40:13.190Z,100342.00
2019-02-10T18:43:03.342Z,100340.00
2019-02-10T18:45:37.658Z,100333.00
2019-02-10T18:48:17.739Z,100335.00
2019-02-10T18:50:54.723Z,100337.00
2019-02-10T18:53:28.483Z,100333.00
2019-02-10T18:56:11.947Z,100337.00
2019-02-10T18:58:53.983Z,100344.00
2019-02-10T19:01:37.585Z,100340.00
2019-02-10T19:04:30.346Z,100341.00
2019-02-10T19:07:07.602Z,100339.00
2019-02-10T19:09:50.660Z,100344.00
2019-02-10T19:12:24.771Z,100326.00
2019-02-10T19:15:16.928Z,100335.00
2019-02-10T19:17:57.358Z,100335.00
2019-02-10T19:20:46.951Z,100343.00
2019-02-10T19:23:37.931Z,100349.00
2019-02-10T19:26:20.963Z,100348.00
2019-02-10T19:28:55.023Z,100337.00
2019-02-10T19:31:29.267Z,100346.00
2019-02-10T19:34:03.309Z,100348.00
2019-02-10T19:36:40.152Z,100346.00
2019-02-10T19:39:17.256Z,100346.00
2019-02-10T19:41:55.660Z,100343.00
2019-02-10T19:44:32.429Z,100346.00
2019-02-10T19:47:12.617Z,100350.00
2019-02-10T19:49:49.561Z,100339.00
2019-02-10T19:52:29.437Z,100346.00
2019-02-10T19:55:03.679Z,100345.00
2019-02-10T19:57:47.086Z,100344.00
2019-02-10T20:00:24.070Z,100345.00
2019-02-10T20:03:10.246Z,100346.00
2019-02-10T20:05:46.823Z,100350.00
2019-02-10T20:08:37.215Z,100352.00
2019-02-10T20:11:11.316Z,100353.00
2019-02-10T20:13:48.398Z,100351.00
2019-02-10T20:16:22.306Z,100354.00
2019-02-10T20:18:56.579Z,100356.00
2019-02-10T20:21:40.047Z,100353.00
2019-02-10T20:24:20.003Z,100343.00
2019-02-10T20:26:57.292Z,100340.00
2019-02-10T20:29:34.709Z,100338.00
2019-02-10T20:32:11.680Z,100342.00
2019-02-10T20:35:01.256Z,100350.00
2019-02-10T20:37:47.548Z,100348.00
2019-02-10T20:40:24.422Z,100346.00
2019-02-10T20:43:01.205Z,100334.00
2019-02-10T20:45:51.801Z,100338.00
2019-02-10T20:48:37.773Z,100337.00
2019-02-10T20:51:12.254Z,100336.00
2019-02-10T20:53:46.202Z,100336.00
2019-02-10T20:56:23.422Z,100334.00
2019-02-10T20:59:13.271Z,100326.00
2019-02-10T21:01:56.967Z,100323.00
2019-02-10T21:04:47.224Z,100330.00
2019-02-10T21:07:21.435Z,100323.00
2019-02-10T21:09:55.503Z,100321.00
2019-02-10T21:12:45.636Z,100321.00
2019-02-10T21:15:32.432Z,100320.00
2019-02-10T21:18:09.041Z,100325.00
2019-02-10T21:20:46.017Z,100309.00
2019-02-10T21:23:36.374Z,100314.00
2019-02-10T21:26:13.575Z,100310.00
2019-02-10T21:28:47.486Z,100316.00
2019-02-10T21:31:30.393Z,100315.00
2019-02-10T21:34:04.498Z,100309.00
2019-02-10T21:36:53.966Z,100306.00
2019-02-10T21:39:30.746Z,100320.00
2019-02-10T21:42:28.760Z,100319.00
2019-02-10T21:45:13.803Z,100310.00
2019-02-10T21:47:48.023Z,100313.00
2019-02-10T21:50:20.643Z,100316.00
2019-02-10T21:52:53.443Z,100312.00
2019-02-10T21:55:25.983Z,100306.00
2019-02-10T21:57:58.992Z,100310.00
2019-02-10T22:00:32.044Z,100310.00
2019-02-10T22:03:05.163Z,100304.00
2019-02-10T22:05:38.048Z,100303.00
2019-02-10T22:08:10.948Z,100298.00
2019-02-10T22:10:43.721Z,100304.00
2019-02-10T22:13:16.713Z,100299.00
2019-02-10T22:15:49.386Z,100311.00
2019-02-10T22:18:22.165Z,100301.00
2019-02-10T22:20:55.997Z,100305.00
2019-02-10T22:23:29.474Z,100294.00
2019-02-10T22:26:02.501Z,100298.00
2019-02-10T22:28:35.846Z,100288.00
2019-02-10T22:31:09.818Z,100286.00
2019-02-10T22:33:43.051Z,100290.00
2019-02-10T22:36:16.600Z,100293.00
2019-02-10T22:38:50.284Z,100291.00
2019-02-10T22:41:24.253Z,100293.00
2019-02-10T22:43:58.485Z,100294.00
2019-02-10T22:46:31.772Z,100297.00
2019-02-10T22:49:05.164Z,100297.00
2019-02-10T22:51:38.331Z,100291.00
2019-02-10T22:54:11.774Z,100288.00
2019-02-10T22:56:45.459Z,100284.00
2019-02-10T22:59:18.658Z,100290.00
2019-02-10T23:01:52.776Z,100291.00
2019-02-10T23:04:26.089Z,100289.00
2019-02-10T23:06:59.574Z,100286.00
2019-02-10T23:09:34.004Z,100288.00
2019-02-10T23:12:07.785Z,100292.00
2019-02-10T23:14:41.761Z,100283.00
2019-02-10T23:17:15.114Z,100285.00
2019-02-10T23:19:49.557Z,100286.00
2019-02-10T23:22:22.905Z,100280.00
2019-02-10T23:24:56.234Z,100278.00
2019-02-10T23:27:29.507Z,100271.00
2019-02-10T23:30:03.378Z,100285.00
2019-02-10T23:32:36.602Z,100274.00
2019-02-10T23:35:10.070Z,100270.00
2019-02-10T23:37:43.287Z,100265.00
2019-02-10T23:40:17.788Z,100270.00
2019-02-10T23:42:50.976Z,100276.00
2019-02-10T23:45:24.316Z,100269.00
2019-02-10T23:47:57.900Z,100270.00
2019-02-10T23:50:31.308Z,100258.00
2019-02-10T23:53:04.587Z,100256.00
2019-02-10T23:55:37.878Z,100257.00
2019-02-10T23:58:11.058Z,100256.00
